Time;durP1;ratioP1;P1;durP2;ratioP2;P2;SDS_P1;SDS_P2;PMS_P1;PMS_P2;Temp;Humidity;BMP_temperature;BMP_pressure;BME280_temperature;BME280_humidity;BME280_pressure;Samples;Min_cycle;Max_cycle;Signal;HPM_P1;HPM_P2
2021/10/17 00:00:06;;;;;;;21.67;15.90;;;;;;;;;;5027147;28;20054;-50
2021/10/17 00:02:39;;;;;;;20.65;15.40;;;;;;;;;;5031405;28;20481;-49
2021/10/17 00:05:07;;;;;;;21.42;15.40;;;;;;;;;;5032602;28;20048;-48
2021/10/17 00:07:35;;;;;;;21.38;16.27;;;;;;;;;;5032654;28;20411;-49
2021/10/17 00:10:03;;;;;;;22.58;15.65;;;;;;;;;;5019492;28;20046;-50
2021/10/17 00:12:30;;;;;;;22.10;15.95;;;;;;;;;;5033040;28;20052;-50
2021/10/17 00:14:57;;;;;;;22.88;16.38;;;;;;;;;;5032539;28;20140;-48
2021/10/17 00:17:24;;;;;;;26.17;17.02;;;;;;;;;;5028469;28;20038;-47
2021/10/17 00:19:51;;;;;;;25.88;17.05;;;;;;;;;;5015570;28;20034;-49
2021/10/17 00:22:18;;;;;;;25.63;18.17;;;;;;;;;;5031860;28;20041;-52
2021/10/17 00:24:45;;;;;;;22.92;15.70;;;;;;;;;;5028506;28;20042;-52
2021/10/17 00:27:12;;;;;;;21.92;15.80;;;;;;;;;;5032475;28;20610;-50
2021/10/17 00:29:39;;;;;;;24.23;16.92;;;;;;;;;;5013370;28;20049;-49
2021/10/17 00:32:09;;;;;;;24.55;16.23;;;;;;;;;;5012891;28;20038;-49
2021/10/17 00:34:36;;;;;;;22.80;15.60;;;;;;;;;;5030203;28;20068;-51
2021/10/17 00:37:02;;;;;;;22.88;15.82;;;;;;;;;;5031730;28;20045;-50
2021/10/17 00:39:29;;;;;;;22.17;16.00;;;;;;;;;;5029476;28;20065;-51
2021/10/17 00:41:57;;;;;;;21.85;14.88;;;;;;;;;;5032015;28;20129;-58
2021/10/17 00:44:24;;;;;;;21.88;15.27;;;;;;;;;;5033056;28;20460;-51
2021/10/17 00:46:51;;;;;;;21.77;15.85;;;;;;;;;;5026463;28;20041;-49
2021/10/17 00:49:18;;;;;;;22.27;15.73;;;;;;;;;;5012193;28;20125;-51
2021/10/17 00:51:45;;;;;;;24.15;16.02;;;;;;;;;;5031136;28;20056;-50
2021/10/17 00:54:12;;;;;;;22.60;15.70;;;;;;;;;;5032044;28;20038;-50
2021/10/17 00:56:40;;;;;;;21.67;16.58;;;;;;;;;;5026355;28;20052;-48
2021/10/17 00:59:07;;;;;;;24.92;17.00;;;;;;;;;;5017356;28;20049;-51
2021/10/17 01:01:35;;;;;;;22.30;16.48;;;;;;;;;;5029796;28;20060;-52
2021/10/17 01:04:02;;;;;;;22.20;15.73;;;;;;;;;;5029460;28;20677;-52
2021/10/17 01:06:29;;;;;;;23.52;17.70;;;;;;;;;;5033111;28;20574;-50
2021/10/17 01:08:56;;;;;;;23.80;16.13;;;;;;;;;;5022247;28;20096;-50
2021/10/17 01:11:23;;;;;;;23.02;16.50;;;;;;;;;;5030950;28;20041;-49
2021/10/17 01:13:51;;;;;;;24.10;16.92;;;;;;;;;;5031407;28;20426;-51
2021/10/17 01:16:17;;;;;;;24.90;16.95;;;;;;;;;;5030107;28;20047;-49
2021/10/17 01:18:47;;;;;;;24.67;16.90;;;;;;;;;;5027606;28;20060;-52
2021/10/17 01:21:21;;;;;;;21.23;15.38;;;;;;;;;;5012433;28;20045;-49
2021/10/17 01:23:49;;;;;;;22.80;16.85;;;;;;;;;;5013089;28;20088;-51
2021/10/17 01:26:16;;;;;;;27.17;17.20;;;;;;;;;;5022379;28;20467;-50
2021/10/17 01:28:42;;;;;;;28.23;17.90;;;;;;;;;;5024281;28;20160;-49
2021/10/17 01:31:09;;;;;;;24.08;17.08;;;;;;;;;;5027264;28;20080;-50
2021/10/17 01:33:36;;;;;;;22.83;16.63;;;;;;;;;;5030513;28;20499;-49
2021/10/17 01:36:03;;;;;;;21.02;15.98;;;;;;;;;;5025109;28;20049;-51
2021/10/17 01:38:30;;;;;;;23.75;16.75;;;;;;;;;;5028723;28;20045;-49
2021/10/17 01:40:57;;;;;;;24.63;17.67;;;;;;;;;;5030272;28;20088;-49
2021/10/17 01:43:26;;;;;;;24.48;15.70;;;;;;;;;;5030892;28;20041;-50
2021/10/17 01:46:00;;;;;;;21.58;15.45;;;;;;;;;;5027042;28;20044;-50
2021/10/17 01:48:28;;;;;;;20.63;15.25;;;;;;;;;;5016255;28;20096;-53
2021/10/17 01:50:57;;;;;;;22.52;15.02;;;;;;;;;;5030890;28;20043;-51
2021/10/17 01:53:28;;;;;;;19.38;14.30;;;;;;;;;;5030116;28;20429;-50
2021/10/17 01:56:00;;;;;;;20.90;15.23;;;;;;;;;;5017154;28;20053;-50
2021/10/17 01:58:30;;;;;;;26.00;15.30;;;;;;;;;;5011556;28;20103;-49
2021/10/17 02:00:57;;;;;;;22.95;15.13;;;;;;;;;;5021753;28;20033;-51
2021/10/17 02:03:26;;;;;;;23.50;16.73;;;;;;;;;;5030018;28;20061;-50
2021/10/17 02:05:53;;;;;;;20.67;15.35;;;;;;;;;;5024497;28;20056;-49
2021/10/17 02:08:21;;;;;;;21.75;15.85;;;;;;;;;;5026268;28;20064;-51
2021/10/17 02:10:49;;;;;;;22.45;15.38;;;;;;;;;;5011038;28;20476;-51
2021/10/17 02:13:16;;;;;;;21.05;15.18;;;;;;;;;;5010929;28;20557;-49
2021/10/17 02:15:43;;;;;;;22.20;14.85;;;;;;;;;;5011875;28;20049;-51
2021/10/17 02:18:11;;;;;;;20.85;15.20;;;;;;;;;;5028370;28;20046;-52
2021/10/17 02:20:44;;;;;;;18.90;14.63;;;;;;;;;;5023417;28;20124;-49
2021/10/17 02:23:13;;;;;;;21.50;14.93;;;;;;;;;;5030340;28;20046;-53
2021/10/17 02:25:40;;;;;;;22.00;15.70;;;;;;;;;;5030641;28;20037;-51
2021/10/17 02:28:06;;;;;;;21.33;15.40;;;;;;;;;;5017761;28;20392;-48
2021/10/17 02:30:40;;;;;;;23.00;15.50;;;;;;;;;;5022193;28;20095;-52
2021/10/17 02:33:23;;;;;;;23.35;16.23;;;;;;;;;;5026938;28;20041;-52
2021/10/17 02:35:50;;;;;;;20.73;15.02;;;;;;;;;;5015251;28;20045;-52
2021/10/17 02:38:16;;;;;;;21.83;14.80;;;;;;;;;;5019560;28;20493;-49
2021/10/17 02:40:44;;;;;;;23.17;15.65;;;;;;;;;;5016276;28;20046;-52
2021/10/17 02:43:13;;;;;;;21.08;14.68;;;;;;;;;;5022714;28;20050;-52
2021/10/17 02:45:40;;;;;;;21.17;14.65;;;;;;;;;;5024306;28;20042;-51
2021/10/17 02:48:07;;;;;;;21.65;15.02;;;;;;;;;;5021501;28;20045;-48
2021/10/17 02:50:34;;;;;;;22.80;15.45;;;;;;;;;;5032572;28;20045;-49
2021/10/17 02:53:02;;;;;;;20.13;15.25;;;;;;;;;;5034335;28;20079;-52
2021/10/17 02:55:30;;;;;;;20.27;14.80;;;;;;;;;;5033454;28;20424;-47
2021/10/17 02:57:58;;;;;;;24.95;15.60;;;;;;;;;;5030250;28;20042;-50
2021/10/17 03:00:27;;;;;;;25.70;16.38;;;;;;;;;;5029107;28;20046;-51
2021/10/17 03:02:54;;;;;;;22.77;16.50;;;;;;;;;;5033289;28;20041;-48
2021/10/17 03:05:22;;;;;;;26.42;16.75;;;;;;;;;;5033658;28;20113;-50
2021/10/17 03:07:49;;;;;;;20.52;14.93;;;;;;;;;;5034343;28;20046;-48
2021/10/17 03:10:17;;;;;;;23.50;16.52;;;;;;;;;;5032776;28;20088;-49
2021/10/17 03:12:43;;;;;;;25.27;17.00;;;;;;;;;;5033278;28;20038;-51
2021/10/17 03:15:16;;;;;;;26.15;16.42;;;;;;;;;;5033278;28;20426;-51
2021/10/17 03:17:43;;;;;;;22.35;15.20;;;;;;;;;;5032500;28;20038;-52
2021/10/17 03:20:10;;;;;;;23.40;15.55;;;;;;;;;;5021707;28;20053;-50
2021/10/17 03:22:43;;;;;;;;;;;;;;;;;;5033020;28;20087;-51
2021/10/17 03:25:10;;;;;;;21.58;14.68;;;;;;;;;;5034958;28;20285;-49
2021/10/17 03:27:38;;;;;;;22.45;14.50;;;;;;;;;;5031165;28;20057;-53
2021/10/17 03:30:05;;;;;;;20.27;14.55;;;;;;;;;;5030212;28;20121;-50
2021/10/17 03:32:33;;;;;;;20.05;15.45;;;;;;;;;;5022060;28;20033;-51
2021/10/17 03:35:03;;;;;;;20.33;14.15;;;;;;;;;;5029203;28;20204;-51
2021/10/17 03:37:31;;;;;;;21.83;14.85;;;;;;;;;;5032907;28;20033;-47
2021/10/17 03:39:58;;;;;;;20.33;14.88;;;;;;;;;;5029899;28;20044;-47
2021/10/17 03:42:28;;;;;;;20.80;14.23;;;;;;;;;;4998062;28;20042;-48
2021/10/17 03:44:56;;;;;;;20.52;14.18;;;;;;;;;;5032427;28;20107;-49
2021/10/17 03:47:24;;;;;;;22.58;14.98;;;;;;;;;;5033975;28;20045;-48
2021/10/17 03:49:54;;;;;;;18.77;13.80;;;;;;;;;;5023207;28;20041;-47
2021/10/17 03:52:25;;;;;;;22.00;14.63;;;;;;;;;;5031861;28;20064;-50
2021/10/17 03:54:52;;;;;;;23.17;14.18;;;;;;;;;;5033752;28;20195;-48
2021/10/17 03:57:19;;;;;;;19.35;14.25;;;;;;;;;;5031723;28;20057;-50
2021/10/17 03:59:46;;;;;;;20.77;14.35;;;;;;;;;;5027773;28;20100;-50
2021/10/17 04:02:13;;;;;;;18.60;13.70;;;;;;;;;;5031639;28;20555;-48
2021/10/17 04:04:40;;;;;;;19.10;13.75;;;;;;;;;;5026029;28;20042;-53
2021/10/17 04:07:07;;;;;;;20.65;14.57;;;;;;;;;;5032929;28;20084;-51
2021/10/17 04:09:37;;;;;;;24.17;15.38;;;;;;;;;;5031587;28;20048;-51
2021/10/17 04:12:05;;;;;;;21.60;14.70;;;;;;;;;;5016240;28;20153;-51
2021/10/17 04:14:40;;;;;;;22.13;15.00;;;;;;;;;;5029709;28;20052;-47
2021/10/17 04:17:07;;;;;;;20.58;13.82;;;;;;;;;;5029453;28;20050;-49
2021/10/17 04:19:34;;;;;;;20.27;14.30;;;;;;;;;;5032951;28;20042;-48
2021/10/17 04:22:01;;;;;;;19.88;13.77;;;;;;;;;;5032560;28;20033;-51
2021/10/17 04:24:28;;;;;;;19.13;13.73;;;;;;;;;;5032168;28;20041;-49
2021/10/17 04:26:55;;;;;;;19.65;13.90;;;;;;;;;;5029412;28;20487;-50
2021/10/17 04:29:23;;;;;;;18.90;13.70;;;;;;;;;;5019524;28;20045;-47
2021/10/17 04:31:50;;;;;;;18.73;13.48;;;;;;;;;;5029812;28;20072;-50
2021/10/17 04:34:17;;;;;;;20.10;13.88;;;;;;;;;;5030681;28;20045;-49
2021/10/17 04:36:43;;;;;;;19.23;13.57;;;;;;;;;;5030905;28;20487;-48
2021/10/17 04:39:10;;;;;;;21.25;13.77;;;;;;;;;;5027533;28;20615;-48
2021/10/17 04:41:38;;;;;;;19.95;13.30;;;;;;;;;;5027953;28;20038;-50
2021/10/17 04:44:05;;;;;;;18.92;13.52;;;;;;;;;;5030218;28;20073;-51
2021/10/17 04:46:33;;;;;;;17.75;13.10;;;;;;;;;;5031702;28;20046;-47
2021/10/17 04:49:00;;;;;;;19.33;13.15;;;;;;;;;;5019226;28;20092;-51
2021/10/17 04:51:27;;;;;;;18.67;13.48;;;;;;;;;;5032706;28;20400;-51
2021/10/17 04:53:54;;;;;;;19.25;12.95;;;;;;;;;;5033192;28;20133;-50
2021/10/17 04:56:21;;;;;;;17.83;12.70;;;;;;;;;;5030646;28;20466;-50
2021/10/17 04:58:48;;;;;;;19.15;12.52;;;;;;;;;;5030976;28;20047;-48
2021/10/17 05:01:16;;;;;;;18.17;12.55;;;;;;;;;;5028203;28;20041;-49
2021/10/17 05:03:43;;;;;;;18.15;12.63;;;;;;;;;;5030477;28;20044;-49
2021/10/17 05:06:13;;;;;;;17.70;12.18;;;;;;;;;;5031854;28;20128;-51
2021/10/17 05:08:40;;;;;;;16.88;12.55;;;;;;;;;;5028216;28;20066;-50
2021/10/17 05:11:08;;;;;;;16.15;11.65;;;;;;;;;;5024772;28;20050;-51
2021/10/17 05:13:35;;;;;;;15.93;11.43;;;;;;;;;;5030157;28;20076;-50
2021/10/17 05:16:02;;;;;;;14.98;11.15;;;;;;;;;;5027221;28;20046;-49
2021/10/17 05:18:29;;;;;;;16.00;11.25;;;;;;;;;;5012278;28;20121;-53
2021/10/17 05:21:00;;;;;;;16.42;11.25;;;;;;;;;;5022752;28;20047;-51
2021/10/17 05:23:27;;;;;;;18.05;11.63;;;;;;;;;;5031384;28;20491;-50
2021/10/17 05:25:55;;;;;;;15.93;11.07;;;;;;;;;;5021708;28;20180;-52
2021/10/17 05:28:22;;;;;;;19.98;11.05;;;;;;;;;;5031530;28;20045;-50
2021/10/17 05:30:53;;;;;;;18.70;11.52;;;;;;;;;;5027942;28;20090;-50
2021/10/17 05:33:20;;;;;;;16.75;12.30;;;;;;;;;;5030642;28;20068;-50
2021/10/17 05:35:47;;;;;;;16.42;11.48;;;;;;;;;;5030230;28;20037;-52
2021/10/17 05:38:14;;;;;;;16.20;11.45;;;;;;;;;;5027205;28;20045;-52
2021/10/17 05:40:41;;;;;;;15.15;10.35;;;;;;;;;;5029601;28;20072;-50
2021/10/17 05:43:08;;;;;;;14.85;9.82;;;;;;;;;;5031074;28;20041;-50
2021/10/17 05:45:35;;;;;;;14.15;10.00;;;;;;;;;;5031362;28;20048;-51
2021/10/17 05:48:02;;;;;;;13.95;10.27;;;;;;;;;;5027332;28;20077;-50
2021/10/17 05:50:31;;;;;;;14.57;10.05;;;;;;;;;;5018799;28;20044;-49
2021/10/17 05:52:58;;;;;;;15.63;10.60;;;;;;;;;;5032382;28;20103;-50
2021/10/17 05:55:25;;;;;;;14.52;10.43;;;;;;;;;;5023654;28;20045;-48
2021/10/17 05:57:52;;;;;;;15.50;11.70;;;;;;;;;;5012525;28;20061;-48
2021/10/17 06:00:21;;;;;;;13.55;10.00;;;;;;;;;;5018734;28;20051;-48
2021/10/17 06:02:52;;;;;;;15.45;10.77;;;;;;;;;;5031051;28;20037;-51
2021/10/17 06:05:21;;;;;;;15.43;9.82;;;;;;;;;;5028007;28;20041;-52
2021/10/17 06:07:49;;;;;;;14.13;10.20;;;;;;;;;;5031134;28;20117;-49
2021/10/17 06:10:16;;;;;;;14.60;9.75;;;;;;;;;;5027596;28;20033;-52
2021/10/17 06:12:43;;;;;;;15.00;9.23;;;;;;;;;;5030219;28;20487;-50
2021/10/17 06:15:13;;;;;;;12.77;9.32;;;;;;;;;;5030272;28;20045;-48
2021/10/17 06:17:40;;;;;;;12.20;9.20;;;;;;;;;;5015271;28;20052;-49
2021/10/17 06:20:08;;;;;;;13.27;9.52;;;;;;;;;;5015541;28;20051;-50
2021/10/17 06:22:39;;;;;;;11.32;8.57;;;;;;;;;;5030692;28;20077;-49
2021/10/17 06:25:06;;;;;;;14.27;9.40;;;;;;;;;;5028958;28;20510;-51
2021/10/17 06:27:34;;;;;;;14.30;9.40;;;;;;;;;;5029497;28;20455;-51
2021/10/17 06:30:00;;;;;;;13.02;9.45;;;;;;;;;;5028446;28;20061;-49
2021/10/17 06:32:27;;;;;;;13.73;8.88;;;;;;;;;;5030633;28;20037;-48
2021/10/17 06:34:54;;;;;;;11.73;8.43;;;;;;;;;;5026908;28;20079;-48
2021/10/17 06:37:21;;;;;;;13.93;8.95;;;;;;;;;;5029080;28;20470;-53
2021/10/17 06:39:48;;;;;;;12.05;8.73;;;;;;;;;;5028457;28;20514;-51
2021/10/17 06:42:17;;;;;;;12.23;9.05;;;;;;;;;;5030643;28;20071;-50
2021/10/17 06:45:13;;;;;;;11.98;8.77;;;;;;;;;;5028641;28;20562;-50
2021/10/17 06:47:40;;;;;;;12.00;8.38;;;;;;;;;;5026446;28;20034;-53
2021/10/17 06:50:07;;;;;;;12.93;8.38;;;;;;;;;;5020648;28;20099;-50
2021/10/17 06:52:34;;;;;;;10.35;7.93;;;;;;;;;;5030375;28;20483;-48
2021/10/17 06:55:01;;;;;;;11.02;8.15;;;;;;;;;;5029239;28;20446;-49
2021/10/17 06:57:28;;;;;;;14.73;9.75;;;;;;;;;;5013677;28;20476;-50
2021/10/17 06:59:55;;;;;;;10.60;8.05;;;;;;;;;;5018797;28;20037;-49
2021/10/17 07:02:23;;;;;;;12.27;8.73;;;;;;;;;;5029397;28;20051;-50
2021/10/17 07:04:50;;;;;;;12.98;8.55;;;;;;;;;;5026353;28;20029;-49
2021/10/17 07:07:18;;;;;;;13.32;8.55;;;;;;;;;;5030037;28;20048;-49
2021/10/17 07:09:44;;;;;;;10.85;7.55;;;;;;;;;;5027053;28;20037;-50
2021/10/17 07:12:25;;;;;;;12.55;8.35;;;;;;;;;;5030370;28;20088;-49
2021/10/17 07:14:53;;;;;;;10.15;7.35;;;;;;;;;;5011595;28;20076;-51
2021/10/17 07:17:43;;;;;;;11.52;7.63;;;;;;;;;;5029583;28;20133;-52
2021/10/17 07:20:29;;;;;;;9.73;7.22;;;;;;;;;;5025221;28;20042;-50
2021/10/17 07:22:56;;;;;;;11.18;8.07;;;;;;;;;;5029644;28;20383;-49
2021/10/17 07:25:28;;;;;;;10.90;8.02;;;;;;;;;;5014632;28;20116;-50
2021/10/17 07:27:55;;;;;;;10.43;7.65;;;;;;;;;;5026906;28;20037;-52
2021/10/17 07:30:22;;;;;;;12.38;8.15;;;;;;;;;;5029830;28;20066;-52
2021/10/17 07:32:50;;;;;;;10.27;7.80;;;;;;;;;;5032385;28;20041;-51
2021/10/17 07:35:17;;;;;;;9.65;7.45;;;;;;;;;;5032257;28;20046;-53
2021/10/17 07:37:44;;;;;;;10.63;7.78;;;;;;;;;;5032178;28;20045;-52
2021/10/17 07:40:13;;;;;;;11.30;8.13;;;;;;;;;;5032350;28;20053;-51
2021/10/17 07:42:43;;;;;;;10.98;8.52;;;;;;;;;;5032827;28;20034;-52
2021/10/17 07:45:14;;;;;;;10.77;7.65;;;;;;;;;;5028668;28;20456;-51
2021/10/17 07:47:54;;;;;;;11.00;7.40;;;;;;;;;;5023677;28;20046;-51
2021/10/17 07:50:21;;;;;;;10.95;8.13;;;;;;;;;;5014144;28;20073;-49
2021/10/17 07:52:49;;;;;;;11.63;7.93;;;;;;;;;;5023518;28;20050;-52
2021/10/17 07:55:25;;;;;;;11.07;8.38;;;;;;;;;;5028524;28;20049;-51
2021/10/17 07:57:55;;;;;;;10.52;7.50;;;;;;;;;;5032810;28;20055;-49
2021/10/17 08:00:27;;;;;;;12.75;8.45;;;;;;;;;;5013965;28;20049;-49
2021/10/17 08:03:29;;;;;;;10.33;7.80;;;;;;;;;;4953844;29;20110;-51
2021/10/17 08:06:24;;;;;;;9.85;7.20;;;;;;;;;;5022316;28;20053;-51
2021/10/17 08:08:51;;;;;;;11.02;8.00;;;;;;;;;;5030591;28;20041;-50
2021/10/17 08:11:20;;;;;;;10.43;7.57;;;;;;;;;;5033086;28;20049;-49
2021/10/17 08:13:46;;;;;;;10.25;7.63;;;;;;;;;;5034127;28;20045;-52
2021/10/17 08:16:15;;;;;;;10.55;8.00;;;;;;;;;;5030640;28;20083;-51
2021/10/17 08:18:50;;;;;;;10.70;7.75;;;;;;;;;;5002535;28;20045;-48
2021/10/17 08:21:17;;;;;;;11.60;8.55;;;;;;;;;;5029154;28;20045;-50
2021/10/17 08:23:54;;;;;;;13.45;9.07;;;;;;;;;;5032510;28;20041;-49
2021/10/17 08:26:23;;;;;;;13.70;9.43;;;;;;;;;;5030958;28;20127;-50
2021/10/17 08:28:50;;;;;;;13.27;9.60;;;;;;;;;;5031863;28;20380;-54
2021/10/17 08:31:22;;;;;;;12.05;9.00;;;;;;;;;;5030998;28;20088;-51
2021/10/17 08:33:50;;;;;;;15.02;10.02;;;;;;;;;;5030801;28;20039;-50
2021/10/17 08:36:26;;;;;;;14.05;10.27;;;;;;;;;;4998176;28;20045;-50
2021/10/17 08:39:23;;;;;;;14.75;9.73;;;;;;;;;;5014695;28;20030;-51
2021/10/17 08:41:49;;;;;;;13.75;9.77;;;;;;;;;;5031587;28;20065;-49
2021/10/17 08:44:17;;;;;;;14.48;10.18;;;;;;;;;;5032645;28;20392;-49
2021/10/17 08:46:58;;;;;;;14.80;10.10;;;;;;;;;;5027991;28;20038;-52
2021/10/17 08:49:28;;;;;;;14.02;10.32;;;;;;;;;;5029808;28;20097;-48
2021/10/17 08:51:56;;;;;;;13.15;9.75;;;;;;;;;;5032237;28;20045;-49
2021/10/17 08:54:23;;;;;;;14.20;11.02;;;;;;;;;;5031036;28;20089;-49
2021/10/17 08:56:58;;;;;;;13.80;11.10;;;;;;;;;;5030878;28;20103;-49
2021/10/17 08:59:27;;;;;;;15.20;11.30;;;;;;;;;;5028232;28;20100;-51
2021/10/17 09:01:56;;;;;;;13.75;9.93;;;;;;;;;;5029156;28;20046;-50
2021/10/17 09:04:32;;;;;;;13.88;10.52;;;;;;;;;;5030462;28;20046;-54
2021/10/17 09:07:15;;;;;;;15.80;11.00;;;;;;;;;;5001891;28;20454;-51
2021/10/17 09:10:06;;;;;;;16.33;11.95;;;;;;;;;;5025341;28;20116;-50
2021/10/17 09:12:34;;;;;;;13.90;10.27;;;;;;;;;;5016275;28;20046;-53
2021/10/17 09:15:20;;;;;;;14.52;10.63;;;;;;;;;;5031920;28;20072;-52
2021/10/17 09:18:06;;;;;;;13.65;10.70;;;;;;;;;;5032193;28;20038;-48
2021/10/17 09:20:34;;;;;;;12.70;9.70;;;;;;;;;;5025163;28;20060;-51
2021/10/17 09:23:01;;;;;;;14.25;10.80;;;;;;;;;;5032399;28;20076;-48
2021/10/17 09:25:32;;;;;;;15.77;11.70;;;;;;;;;;5032564;28;20057;-48
2021/10/17 09:27:59;;;;;;;14.25;11.63;;;;;;;;;;5016141;28;20614;-47
2021/10/17 09:30:26;;;;;;;14.60;10.98;;;;;;;;;;5020279;28;20056;-47
2021/10/17 09:33:11;;;;;;;14.43;10.77;;;;;;;;;;5031917;28;20059;-48
2021/10/17 09:35:38;;;;;;;13.88;10.82;;;;;;;;;;5013361;28;20097;-50
2021/10/17 09:38:37;;;;;;;14.43;10.88;;;;;;;;;;4988604;28;20049;-49
2021/10/17 09:41:18;;;;;;;14.32;10.40;;;;;;;;;;5022308;28;20056;-50
2021/10/17 09:43:58;;;;;;;15.38;11.07;;;;;;;;;;5029581;28;20522;-52
2021/10/17 09:46:52;;;;;;;16.05;11.75;;;;;;;;;;5021052;28;20111;-50
2021/10/17 09:49:22;;;;;;;19.55;11.63;;;;;;;;;;5012747;28;20065;-49
2021/10/17 09:52:08;;;;;;;17.65;11.77;;;;;;;;;;5028538;28;20513;-49
2021/10/17 09:54:36;;;;;;;15.85;11.93;;;;;;;;;;5027755;28;20042;-50
2021/10/17 09:57:06;;;;;;;15.40;12.40;;;;;;;;;;5017077;28;20042;-51
2021/10/17 09:59:34;;;;;;;15.60;11.90;;;;;;;;;;5026990;28;20036;-51
2021/10/17 10:02:03;;;;;;;15.73;12.18;;;;;;;;;;5030672;28;20038;-52
2021/10/17 10:04:30;;;;;;;19.15;13.57;;;;;;;;;;5030496;28;20037;-50
2021/10/17 10:06:57;;;;;;;16.83;12.75;;;;;;;;;;5031398;28;20570;-53
2021/10/17 10:09:25;;;;;;;16.95;13.05;;;;;;;;;;5021656;28;20475;-49
2021/10/17 10:11:53;;;;;;;16.30;12.93;;;;;;;;;;5028571;28;20046;-53
2021/10/17 10:14:20;;;;;;;17.77;13.40;;;;;;;;;;5030767;28;20048;-50
2021/10/17 10:16:52;;;;;;;18.83;14.20;;;;;;;;;;5027993;28;20127;-49
2021/10/17 10:19:19;;;;;;;19.83;15.02;;;;;;;;;;5017303;28;20036;-53
2021/10/17 10:21:46;;;;;;;20.00;14.43;;;;;;;;;;5031665;28;20499;-51
2021/10/17 10:24:16;;;;;;;20.23;15.18;;;;;;;;;;5028968;28;20132;-51
2021/10/17 10:26:43;;;;;;;19.17;15.02;;;;;;;;;;5029066;28;20663;-50
2021/10/17 10:29:10;;;;;;;19.80;14.98;;;;;;;;;;5030577;28;20124;-52
2021/10/17 10:31:47;;;;;;;21.05;14.93;;;;;;;;;;5024950;28;20067;-51
2021/10/17 10:34:20;;;;;;;20.20;15.98;;;;;;;;;;5029368;28;20392;-51
2021/10/17 10:36:48;;;;;;;20.92;15.80;;;;;;;;;;5030173;28;20065;-50
2021/10/17 10:39:16;;;;;;;24.23;17.55;;;;;;;;;;5025919;28;20123;-52
2021/10/17 10:41:46;;;;;;;23.33;16.52;;;;;;;;;;5029771;28;20049;-53
2021/10/17 10:44:21;;;;;;;20.77;15.95;;;;;;;;;;5029086;28;20036;-51
2021/10/17 10:46:49;;;;;;;23.20;16.77;;;;;;;;;;5026499;28;20056;-52
2021/10/17 10:49:34;;;;;;;22.67;17.27;;;;;;;;;;5029410;28;20048;-52
2021/10/17 10:52:01;;;;;;;24.35;16.05;;;;;;;;;;5030218;28;20045;-51
2021/10/17 10:54:28;;;;;;;23.35;16.50;;;;;;;;;;5023244;28;20412;-48
2021/10/17 10:56:58;;;;;;;22.40;16.05;;;;;;;;;;5029853;28;20072;-51
2021/10/17 10:59:28;;;;;;;20.77;15.38;;;;;;;;;;5024462;28;20041;-51
2021/10/17 11:02:11;;;;;;;22.73;16.75;;;;;;;;;;5029569;28;20045;-50
2021/10/17 11:04:38;;;;;;;18.45;14.85;;;;;;;;;;5030442;28;20092;-51
2021/10/17 11:07:27;;;;;;;21.38;15.68;;;;;;;;;;5020675;28;20041;-49
2021/10/17 11:09:55;;;;;;;20.23;14.70;;;;;;;;;;5029033;28;20141;-53
2021/10/17 11:12:40;;;;;;;19.02;15.73;;;;;;;;;;5031963;28;20410;-51
2021/10/17 11:15:12;;;;;;;20.67;15.70;;;;;;;;;;5034681;28;20085;-49
2021/10/17 11:17:58;;;;;;;20.23;15.95;;;;;;;;;;5025088;28;20124;-51
2021/10/17 11:20:26;;;;;;;20.00;14.80;;;;;;;;;;5019122;28;20046;-50
2021/10/17 11:22:54;;;;;;;18.92;15.55;;;;;;;;;;5033340;28;20045;-52
2021/10/17 11:25:22;;;;;;;18.23;14.68;;;;;;;;;;5032369;28;20048;-52
2021/10/17 11:27:49;;;;;;;17.80;14.20;;;;;;;;;;5033713;28;20488;-52
2021/10/17 11:30:19;;;;;;;17.35;14.60;;;;;;;;;;5028602;28;20103;-48
2021/10/17 11:32:46;;;;;;;15.75;13.52;;;;;;;;;;5033840;28;20073;-49
2021/10/17 11:35:13;;;;;;;17.67;14.45;;;;;;;;;;5032019;28;20059;-50
2021/10/17 11:37:39;;;;;;;16.95;13.73;;;;;;;;;;5033847;28;20069;-49
2021/10/17 11:40:10;;;;;;;15.52;13.07;;;;;;;;;;5029978;28;20044;-49
2021/10/17 11:42:51;;;;;;;16.90;13.98;;;;;;;;;;5033447;28;20524;-51
2021/10/17 11:45:28;;;;;;;17.30;13.85;;;;;;;;;;5031009;28;20049;-52
2021/10/17 11:47:56;;;;;;;17.58;14.20;;;;;;;;;;5034380;28;20142;-52
2021/10/17 11:50:29;;;;;;;17.35;14.80;;;;;;;;;;5022339;28;20049;-49
2021/10/17 11:52:56;;;;;;;19.65;15.20;;;;;;;;;;5032668;28;20595;-50
2021/10/17 11:55:52;;;;;;;18.42;15.25;;;;;;;;;;5030840;28;20068;-50
2021/10/17 11:58:22;;;;;;;17.23;14.35;;;;;;;;;;5010123;28;20133;-52
2021/10/17 12:00:53;;;;;;;18.15;15.68;;;;;;;;;;5026393;28;20513;-52
2021/10/17 12:03:21;;;;;;;17.95;14.43;;;;;;;;;;5033819;28;20590;-52
2021/10/17 12:05:49;;;;;;;16.63;14.68;;;;;;;;;;5031736;28;20034;-51
2021/10/17 12:08:19;;;;;;;16.60;13.95;;;;;;;;;;5028431;28;20137;-50
2021/10/17 12:10:56;;;;;;;15.77;13.15;;;;;;;;;;5028670;28;20072;-52
2021/10/17 12:13:23;;;;;;;15.30;13.07;;;;;;;;;;5031984;28;20570;-49
2021/10/17 12:16:00;;;;;;;14.18;12.52;;;;;;;;;;5031914;28;20129;-50
2021/10/17 12:18:28;;;;;;;13.73;12.30;;;;;;;;;;5022005;28;20104;-53
2021/10/17 12:20:54;;;;;;;15.70;12.27;;;;;;;;;;5054148;23;20045;-52
2021/10/17 12:23:21;;;;;;;13.82;12.35;;;;;;;;;;5051139;28;20045;-55
2021/10/17 12:26:28;;;;;;;13.15;11.77;;;;;;;;;;5026822;28;20149;-51
2021/10/17 12:29:07;;;;;;;16.73;12.60;;;;;;;;;;5042491;28;20041;-53
2021/10/17 12:31:35;;;;;;;13.02;11.48;;;;;;;;;;5033496;28;20179;-51
2021/10/17 12:34:05;;;;;;;12.73;11.43;;;;;;;;;;5028873;28;20053;-55
2021/10/17 12:36:32;;;;;;;12.98;11.63;;;;;;;;;;5029878;28;20045;-54
2021/10/17 12:39:00;;;;;;;13.18;11.88;;;;;;;;;;5024232;28;20054;-55
2021/10/17 12:41:28;;;;;;;14.88;11.52;;;;;;;;;;5013029;28;20118;-55
2021/10/17 12:44:00;;;;;;;13.07;11.68;;;;;;;;;;5012208;28;20049;-55
2021/10/17 12:46:27;;;;;;;13.30;11.38;;;;;;;;;;5030619;28;20037;-57
2021/10/17 12:48:53;;;;;;;13.88;11.20;;;;;;;;;;5013340;28;20108;-54
2021/10/17 12:51:41;;;;;;;12.30;10.73;;;;;;;;;;5024358;28;20129;-53
2021/10/17 12:54:08;;;;;;;14.43;12.10;;;;;;;;;;5031777;28;20459;-54
2021/10/17 12:56:37;;;;;;;13.40;11.40;;;;;;;;;;5020960;28;20069;-54
2021/10/17 12:59:14;;;;;;;13.50;12.15;;;;;;;;;;5013485;28;20140;-55
2021/10/17 13:01:58;;;;;;;14.57;12.25;;;;;;;;;;5044240;28;20459;-51
2021/10/17 13:04:41;;;;;;;13.02;11.63;;;;;;;;;;5029039;28;20132;-55
2021/10/17 13:07:08;;;;;;;13.50;11.90;;;;;;;;;;5030923;28;20586;-57
2021/10/17 13:09:45;;;;;;;12.40;11.10;;;;;;;;;;5028762;28;20037;-55
2021/10/17 13:12:19;;;;;;;14.07;12.50;;;;;;;;;;5032303;28;20048;-54
2021/10/17 13:15:07;;;;;;;12.88;11.57;;;;;;;;;;5030249;28;20045;-55
2021/10/17 13:17:36;;;;;;;15.50;12.68;;;;;;;;;;5028369;28;20068;-54
2021/10/17 13:20:06;;;;;;;14.88;13.00;;;;;;;;;;5015656;28;20406;-51
2021/10/17 13:22:34;;;;;;;14.02;12.52;;;;;;;;;;5031163;28;20513;-56
2021/10/17 13:25:00;;;;;;;14.70;13.10;;;;;;;;;;5030419;28;20034;-51
2021/10/17 13:27:27;;;;;;;15.27;13.07;;;;;;;;;;5027411;28;20442;-52
2021/10/17 13:29:55;;;;;;;15.45;12.88;;;;;;;;;;5024764;28;20479;-52
2021/10/17 13:32:27;;;;;;;15.10;13.23;;;;;;;;;;5024454;28;20132;-52
2021/10/17 13:34:55;;;;;;;15.70;12.38;;;;;;;;;;5029572;28;20041;-53
2021/10/17 13:37:22;;;;;;;15.63;13.30;;;;;;;;;;5025954;28;20040;-51
2021/10/17 13:39:49;;;;;;;16.45;13.60;;;;;;;;;;5020243;28;20065;-53
2021/10/17 13:42:16;;;;;;;16.60;14.70;;;;;;;;;;5032092;28;20470;-53
2021/10/17 13:44:42;;;;;;;17.15;14.02;;;;;;;;;;5030331;28;20552;-50
2021/10/17 13:47:14;;;;;;;17.55;14.18;;;;;;;;;;5024853;28;20072;-51
2021/10/17 13:49:41;;;;;;;19.20;16.38;;;;;;;;;;5031166;28;20043;-53
2021/10/17 13:52:08;;;;;;;18.70;15.23;;;;;;;;;;5031870;28;20043;-52
2021/10/17 13:54:35;;;;;;;20.40;16.17;;;;;;;;;;5021905;28;20061;-50
2021/10/17 13:57:07;;;;;;;23.33;16.63;;;;;;;;;;5031655;28;20065;-52
2021/10/17 13:59:33;;;;;;;16.40;13.93;;;;;;;;;;5027006;28;20092;-50
2021/10/17 14:02:01;;;;;;;19.73;16.45;;;;;;;;;;5028588;28;20074;-51
2021/10/17 14:04:29;;;;;;;23.52;16.10;;;;;;;;;;5027058;28;20038;-52
2021/10/17 14:06:56;;;;;;;22.45;17.17;;;;;;;;;;5030041;28;20108;-56
2021/10/17 14:09:23;;;;;;;24.42;18.33;;;;;;;;;;5017245;28;20064;-53
2021/10/17 14:11:50;;;;;;;22.17;17.52;;;;;;;;;;5011524;28;20042;-50
2021/10/17 14:14:18;;;;;;;22.20;17.50;;;;;;;;;;5028290;28;20103;-52
2021/10/17 14:16:45;;;;;;;24.45;18.75;;;;;;;;;;5012105;28;20080;-51
2021/10/17 14:19:12;;;;;;;25.35;19.80;;;;;;;;;;5024924;28;20136;-52
2021/10/17 14:21:40;;;;;;;26.00;19.52;;;;;;;;;;5030999;28;20045;-51
2021/10/17 14:24:08;;;;;;;25.67;18.90;;;;;;;;;;5029060;28;20037;-51
2021/10/17 14:26:35;;;;;;;26.80;19.02;;;;;;;;;;5028306;28;20047;-51
2021/10/17 14:29:02;;;;;;;24.55;19.13;;;;;;;;;;5019598;28;20169;-50
2021/10/17 14:31:29;;;;;;;27.48;21.30;;;;;;;;;;5026163;28;20469;-54
2021/10/17 14:33:55;;;;;;;26.20;20.48;;;;;;;;;;5029549;28;20417;-50